| Date | Time | Temp. (oF) | Dew Point (oF) | Rel. Hum. (%) | Press. (in.) | Wind Dir. | Wind Speed (mph) | Hourly Rainfall (in.) |
|
|---|---|---|---|---|---|---|---|---|---|
| 1 | 04/09 | 00:00 | 56 | 54 | 94 | 29.66 | W | 2 | 0.00 |
| 2 | 04/08 | 23:00 | 58 | 55 | 91 | 29.65 | WNW | 11 | 0.09 |
| 3 | 04/08 | 22:00 | 63 | 60 | 92 | 29.65 | SW | 4 | 0.16 |
| 4 | 04/08 | 21:00 | 66 | 59 | 79 | 29.59 | WSW | 3 | 0.02 |
| 5 | 04/08 | 20:00 | 71 | 56 | 61 | 29.56 | W | 7 | 0.00 |
| 6 | 04/08 | 19:00 | 77 | 55 | 47 | 29.51 | SSW | 7 | 0.00 |
| 7 | 04/08 | 18:00 | 79 | 55 | 45 | 29.49 | SSW | 10 | 0.00 |
| 8 | 04/08 | 17:00 | 82 | 55 | 41 | 29.49 | SW | 12 | 0.00 |
| 9 | 04/08 | 16:00 | 82 | 56 | 42 | 29.50 | SSW | 10 | 0.00 |
| 10 | 04/08 | 15:00 | 82 | 60 | 48 | 29.53 | SSW | 13 | 0.00 |
| 11 | 04/08 | 14:00 | 82 | 60 | 48 | 29.56 | S | 10 | 0.00 |
| 12 | 04/08 | 13:00 | 83 | 59 | 45 | 29.59 | SSW | 8 | 0.00 |
| 13 | 04/08 | 12:00 | 81 | 56 | 44 | 29.62 | SSE | 9 | 0.00 |
| 14 | 04/08 | 11:00 | 79 | 56 | 46 | 29.64 | SW | 2 | 0.00 |
| 15 | 04/08 | 10:00 | 76 | 57 | 53 | 29.66 | SW | 5 | 0.00 |
| 16 | 04/08 | 09:00 | 71 | 55 | 59 | 29.68 | WSW | 5 | 0.00 |
| 17 | 04/08 | 08:00 | 63 | 52 | 69 | 29.70 | SW | 0 | 0.00 |
| 18 | 04/08 | 07:00 | 60 | 49 | 68 | 29.69 | SSW | 0 | 0.00 |
| 19 | 04/08 | 06:00 | 63 | 49 | 61 | 29.67 | SSW | 0 | 0.00 |
| 20 | 04/08 | 05:00 | 66 | 49 | 55 | 29.66 | SW | 1 | 0.00 |
| 21 | 04/08 | 04:00 | 67 | 48 | 51 | 29.65 | SSW | 1 | 0.00 |
| 22 | 04/08 | 03:00 | 69 | 47 | 47 | 29.64 | SSW | 2 | 0.00 |
| 23 | 04/08 | 02:00 | 74 | 48 | 41 | 29.65 | SW | 4 | 0.00 |
| 24 | 04/08 | 01:00 | 75 | 48 | 40 | 29.64 | WSW | 2 | 0.00 |